Terminal Aerodrome Forecast
Issued by NWS

Home | Current Version | Previous Version | Text Only | Print | Product List | Glossary On
Versions: 1 2 3 4 5 6 7 8 9 10 11 12 13 14 15 16 17 18 19 20 21 22 23 24 25 26 27 28 29 30 31 32 33 34 35 36 37 38 39 40 41 42 43 44 45 46 47 48 49 50
000
FTUS43 KLOT 300900 AAA
TAFGYY
TAF AMD
KGYY 300900Z 3009/3106 26007KT 6SM -SHRA SCT025 OVC040
     FM301400 34007KT 3SM -RA BR BKN007 OVC015
     FM301600 01016G25KT 2SM RA BR OVC004
     FM302000 01018G28KT 3SM SHRA BR OVC005
     FM310000 01020G30KT 6SM -SHRA BKN006 OVC012=

USA.gov is the U.S. government's official web portal to all federal, state and local government web resources and services.